Terminal Aerodrome Forecast
Issued by NWS

Home | Current Version | Previous Version | Text Only | Print | Product List | Glossary Off
Versions: 1 2 3 4 5 6 7 8 9 10 11 12 13

000
FTUS43 KFGF 031120
TAFBJI
TAF
KBJI 031120Z 0312/0412 25009KT P6SM SCT250 WS020/27040KT
     FM031300 27011KT P6SM BKN100
     FM031700 32017G25KT P6SM SCT250
     FM032200 35016G24KT P6SM SKC
     FM040200 35009KT P6SM SKC
     FM040500 34005KT P6SM SKC=

USA.gov is the U.S. government's official web portal to all federal, state and local government web resources and services.